Time;durP1;ratioP1;P1;durP2;ratioP2;P2;SDS_P1;SDS_P2;PMS_P1;PMS_P2;Temp;Humidity;BMP_temperature;BMP_pressure;BME280_temperature;BME280_humidity;BME280_pressure;Samples;Min_cycle;Max_cycle;Signal;HPM_P1;HPM_P2
2023/05/13 00:02:01;;;;;;;2.35;1.27;;;16.50;66.50;;;;;;2365540;53;20995;-72
2023/05/13 00:04:38;;;;;;;2.50;1.40;;;16.50;66.60;;;;;;2617193;52;20955;-73
2023/05/13 00:07:04;;;;;;;2.85;1.58;;;16.50;66.60;;;;;;2616936;52;20947;-75
2023/05/13 00:09:31;;;;;;;2.75;1.52;;;16.40;66.50;;;;;;2366658;53;20923;-75
2023/05/13 00:11:57;;;;;;;3.08;1.52;;;16.40;66.60;;;;;;2368255;53;20928;-76
2023/05/13 00:14:26;;;;;;;2.62;1.33;;;16.40;66.60;;;;;;2366167;53;21015;-72
2023/05/13 00:16:57;;;;;;;3.47;1.95;;;16.40;66.60;;;;;;2617396;52;21055;-77
2023/05/13 00:19:24;;;;;;;2.80;1.90;;;16.40;66.80;;;;;;2366351;53;21035;-72
2023/05/13 00:21:51;;;;;;;3.83;1.87;;;16.20;66.70;;;;;;2617135;52;20927;-75
2023/05/13 00:24:19;;;;;;;2.75;1.50;;;16.40;66.90;;;;;;2366788;53;20990;-74
2023/05/13 00:26:45;;;;;;;2.92;1.73;;;16.30;66.80;;;;;;2364074;53;20990;-76
2023/05/13 00:29:11;;;;;;;3.30;1.85;;;16.30;66.90;;;;;;2617738;52;20972;-74
2023/05/13 00:31:38;;;;;;;3.30;1.70;;;16.30;66.90;;;;;;2617538;52;22269;-75
2023/05/13 00:34:05;;;;;;;2.70;1.50;;;16.30;66.90;;;;;;2366196;53;21007;-75
2023/05/13 00:36:31;;;;;;;3.30;1.87;;;16.30;67.00;;;;;;2366416;53;20963;-76
2023/05/13 00:38:58;;;;;;;3.03;1.85;;;16.30;67.10;;;;;;2365532;53;20904;-76
2023/05/13 00:41:24;;;;;;;3.08;1.62;;;16.30;67.10;;;;;;2365705;53;20948;-74
2023/05/13 00:43:54;;;;;;;3.60;1.90;;;16.30;67.10;;;;;;2368788;53;21468;-74
2023/05/13 00:46:22;;;;;;;3.15;1.87;;;16.30;67.10;;;;;;2351487;53;21017;-75
2023/05/13 00:48:50;;;;;;;3.05;1.73;;;16.30;67.10;;;;;;2365027;53;21073;-74
2023/05/13 00:51:17;;;;;;;4.45;1.75;;;16.30;67.40;;;;;;2616820;52;21552;-75
2023/05/13 00:53:43;;;;;;;2.65;1.50;;;16.30;67.10;;;;;;2366164;53;20987;-76
2023/05/13 00:56:15;;;;;;;2.83;1.50;;;16.30;67.10;;;;;;2616307;52;21465;-75
2023/05/13 00:58:44;;;;;;;3.05;1.67;;;16.30;67.20;;;;;;2366262;53;20912;-75
2023/05/13 01:03:02;;;;;;;3.05;1.45;;;16.30;67.10;;;;;;2617640;52;20932;-74
2023/05/13 01:05:53;;;;;;;3.92;1.50;;;16.30;66.80;;;;;;2368628;53;20929;-74
2023/05/13 01:08:44;;;;;;;2.70;1.52;;;16.30;67.10;;;;;;2366749;53;20964;-74
2023/05/13 01:11:19;;;;;;;3.10;1.92;;;16.30;66.90;;;;;;2365986;53;20916;-75
2023/05/13 01:13:47;;;;;;;3.20;1.60;;;16.30;67.40;;;;;;2362292;53;20983;-74
2023/05/13 01:16:54;;;;;;;6.05;1.80;;;16.30;67.40;;;;;;2369488;54;20960;-75
2023/05/13 01:19:44;;;;;;;3.75;1.60;;;16.30;67.10;;;;;;2360418;53;20957;-75
2023/05/13 01:22:13;;;;;;;2.75;1.60;;;16.30;67.20;;;;;;2622920;52;20901;-74
2023/05/13 01:24:39;;;;;;;3.30;1.55;;;16.20;67.50;;;;;;2371199;54;21414;-75
2023/05/13 01:27:06;;;;;;;2.90;1.98;;;16.30;67.60;;;;;;2623071;52;20996;-76
2023/05/13 01:29:32;;;;;;;3.00;1.80;;;16.20;67.60;;;;;;2359429;53;20956;-75
2023/05/13 01:31:59;;;;;;;4.53;2.30;;;16.20;67.70;;;;;;2612221;52;20941;-77
2023/05/13 01:34:25;;;;;;;3.08;1.70;;;16.20;67.80;;;;;;2623675;52;22223;-74
2023/05/13 01:36:51;;;;;;;2.95;1.73;;;16.30;67.90;;;;;;2623721;52;20909;-74
2023/05/13 01:39:33;;;;;;;2.95;1.80;;;16.30;67.90;;;;;;2363771;53;21000;-75
2023/05/13 01:42:00;;;;;;;3.20;1.73;;;16.30;67.90;;;;;;2360852;53;21044;-76
2023/05/13 01:44:28;;;;;;;2.78;1.85;;;16.30;67.80;;;;;;2623085;52;20972;-74
2023/05/13 01:46:54;;;;;;;2.97;1.87;;;16.30;67.90;;;;;;2371327;54;22082;-75
2023/05/13 01:49:21;;;;;;;2.70;1.60;;;16.30;67.90;;;;;;2371344;54;20936;-76
2023/05/13 01:51:48;;;;;;;3.62;2.03;;;16.30;68.00;;;;;;2595566;52;21546;-75
2023/05/13 01:54:15;;;;;;;3.30;1.90;;;16.30;68.00;;;;;;2623294;52;21885;-75
2023/05/13 01:56:41;;;;;;;3.08;1.60;;;16.30;68.10;;;;;;2370936;53;20972;-75
2023/05/13 01:59:11;;;;;;;3.10;1.60;;;16.30;68.10;;;;;;2623708;52;21409;-75
2023/05/13 02:01:39;;;;;;;3.75;1.40;;;16.40;68.20;;;;;;2623763;52;21909;-75
2023/05/13 02:04:05;;;;;;;2.50;1.45;;;16.40;68.30;;;;;;2371515;54;20924;-75
2023/05/13 02:06:32;;;;;;;2.50;1.40;;;16.40;68.20;;;;;;2620534;52;20968;-75
2023/05/13 02:08:58;;;;;;;2.67;1.55;;;16.40;68.20;;;;;;2349519;53;21293;-74
2023/05/13 02:11:39;;;;;;;2.65;1.35;;;16.40;68.20;;;;;;2608620;52;20970;-76
2023/05/13 02:14:05;;;;;;;2.33;1.27;;;16.50;68.00;;;;;;2363005;53;21052;-76
2023/05/13 02:16:33;;;;;;;2.50;1.30;;;16.40;68.00;;;;;;2606419;52;21064;-72
2023/05/13 02:18:59;;;;;;;2.40;1.40;;;16.40;68.00;;;;;;2611305;52;21003;-74
2023/05/13 02:21:26;;;;;;;2.60;1.48;;;16.40;68.00;;;;;;2620597;52;21404;-75
2023/05/13 02:23:52;;;;;;;2.80;1.45;;;16.40;67.90;;;;;;2589280;52;20926;-75
2023/05/13 02:26:20;;;;;;;2.72;1.60;;;16.40;67.90;;;;;;2623565;52;20980;-75
2023/05/13 02:28:46;;;;;;;2.87;1.90;;;16.50;68.00;;;;;;2364624;53;21557;-77
2023/05/13 02:31:15;;;;;;;2.90;1.58;;;16.40;68.00;;;;;;2352210;53;20984;-75
2023/05/13 02:33:45;;;;;;;2.65;1.37;;;16.40;67.90;;;;;;2357301;53;20968;-75
2023/05/13 02:36:11;;;;;;;2.58;1.37;;;16.50;67.90;;;;;;2370720;54;25248;-75
2023/05/13 02:38:38;;;;;;;2.90;1.30;;;16.40;67.90;;;;;;2371621;54;21696;-75
2023/05/13 02:41:04;;;;;;;3.08;1.42;;;16.40;67.90;;;;;;2623302;52;20946;-76
2023/05/13 02:43:31;;;;;;;2.50;1.37;;;16.40;67.90;;;;;;2370342;53;21903;-74
2023/05/13 02:45:57;;;;;;;2.25;1.20;;;16.40;67.90;;;;;;2622143;52;21057;-75
2023/05/13 02:48:24;;;;;;;2.95;1.17;;;16.40;67.90;;;;;;2346326;53;20934;-77
2023/05/13 02:50:50;;;;;;;2.53;1.10;;;16.40;67.80;;;;;;2371640;53;20913;-75
2023/05/13 02:53:17;;;;;;;2.10;1.00;;;16.40;67.90;;;;;;2624047;52;20965;-74
2023/05/13 02:55:43;;;;;;;2.30;1.23;;;16.40;67.90;;;;;;2372356;53;20949;-74
2023/05/13 02:58:10;;;;;;;2.08;1.10;;;16.40;67.90;;;;;;2623985;52;21013;-76
2023/05/13 03:00:37;;;;;;;2.12;1.10;;;16.30;67.80;;;;;;2624749;52;20945;-74
2023/05/13 03:03:03;;;;;;;1.92;1.00;;;16.30;67.80;;;;;;2371434;53;21032;-76
2023/05/13 03:05:30;;;;;;;1.98;1.00;;;16.30;67.80;;;;;;2371447;54;20972;-76
2023/05/13 03:07:57;;;;;;;2.25;1.25;;;16.30;67.80;;;;;;2603116;52;20924;-74
2023/05/13 03:10:23;;;;;;;2.10;1.00;;;16.30;67.90;;;;;;2610250;52;20937;-75
2023/05/13 03:16:12;;;;;;;2.55;1.30;;;16.40;67.60;;;;;;2370414;54;21366;-74
2023/05/13 03:18:41;;;;;;;2.83;1.20;;;16.40;68.10;;;;;;2624056;52;20913;-76
2023/05/13 03:21:08;;;;;;;2.87;1.23;;;16.30;68.00;;;;;;2371472;53;20984;-75
2023/05/13 03:23:36;;;;;;;2.67;1.52;;;16.40;68.20;;;;;;2624458;52;20928;-74
2023/05/13 03:26:03;;;;;;;2.67;1.33;;;16.40;68.30;;;;;;2621160;52;21051;-74
2023/05/13 03:28:29;;;;;;;2.60;1.33;;;16.40;68.30;;;;;;2367224;53;20952;-75
2023/05/13 03:30:56;;;;;;;2.10;1.10;;;16.40;68.40;;;;;;2603374;52;21773;-74
2023/05/13 03:33:22;;;;;;;2.28;1.10;;;16.40;68.30;;;;;;2371214;54;20933;-75
2023/05/13 03:35:49;;;;;;;2.45;1.25;;;16.40;68.30;;;;;;2322009;53;20921;-75
2023/05/13 03:38:20;;;;;;;3.20;1.60;;;16.40;68.30;;;;;;2616383;52;20903;-74
2023/05/13 03:41:05;;;;;;;2.83;1.55;;;16.40;68.20;;;;;;2364955;53;21010;-75
2023/05/13 03:43:32;;;;;;;3.08;1.33;;;16.40;67.90;;;;;;2365190;53;21807;-76
2023/05/13 03:45:58;;;;;;;2.75;1.25;;;16.30;68.20;;;;;;2365390;53;20993;-75
2023/05/13 03:48:26;;;;;;;2.87;1.40;;;16.40;68.40;;;;;;2616285;52;20927;-75
2023/05/13 03:50:52;;;;;;;2.45;1.30;;;16.40;68.40;;;;;;2616784;52;21262;-75
2023/05/13 03:53:18;;;;;;;2.03;1.05;;;16.40;68.40;;;;;;2365404;53;20915;-76
2023/05/13 03:55:45;;;;;;;2.08;1.15;;;16.40;68.40;;;;;;2616056;52;20926;-75
2023/05/13 03:58:13;;;;;;;2.35;1.10;;;16.40;68.40;;;;;;2616813;52;20927;-74
2023/05/13 04:00:40;;;;;;;2.83;1.20;;;16.40;68.30;;;;;;2614890;52;21482;-74
2023/05/13 04:06:36;;;;;;;2.42;1.10;;;16.40;67.80;;;;;;2616706;52;21024;-75
2023/05/13 04:09:03;;;;;;;2.17;1.10;;;16.40;68.10;;;;;;2604244;52;20959;-75
2023/05/13 04:11:30;;;;;;;3.00;1.40;;;16.40;68.00;;;;;;2363141;53;21008;-76
2023/05/13 04:13:58;;;;;;;2.62;1.30;;;16.40;67.90;;;;;;2345501;53;21012;-76
2023/05/13 04:16:25;;;;;;;2.50;1.30;;;16.30;67.80;;;;;;2597827;52;21013;-75
2023/05/13 04:18:54;;;;;;;2.30;1.10;;;16.40;68.00;;;;;;2575250;53;21286;-74
2023/05/13 04:21:22;;;;;;;2.62;1.20;;;16.30;67.80;;;;;;2350874;53;20937;-76
2023/05/13 04:23:48;;;;;;;6.15;1.48;;;16.30;68.00;;;;;;2600711;52;20932;-74
2023/05/13 04:26:22;;;;;;;2.35;1.20;;;16.40;68.20;;;;;;2611803;52;21398;-74
2023/05/13 04:28:48;;;;;;;2.35;1.10;;;16.30;68.00;;;;;;2623310;52;21411;-74
2023/05/13 04:31:14;;;;;;;1.92;0.90;;;16.30;68.10;;;;;;2370920;54;20914;-76
2023/05/13 04:33:44;;;;;;;2.05;0.93;;;16.30;68.00;;;;;;2622798;52;20909;-76
2023/05/13 04:36:14;;;;;;;3.03;1.58;;;16.30;67.90;;;;;;2622814;52;21013;-73
2023/05/13 04:38:41;;;;;;;2.50;1.33;;;16.30;67.70;;;;;;2622933;52;20937;-74
2023/05/13 04:41:07;;;;;;;4.35;1.70;;;16.20;67.80;;;;;;2370128;53;21002;-74
2023/05/13 04:43:34;;;;;;;2.37;1.37;;;16.20;67.70;;;;;;2370968;53;20922;-75
2023/05/13 04:46:01;;;;;;;2.60;1.27;;;16.20;67.70;;;;;;2623144;52;21030;-76
2023/05/13 04:48:28;;;;;;;3.10;1.60;;;16.20;67.70;;;;;;2371067;53;21348;-76
2023/05/13 04:50:55;;;;;;;2.08;1.15;;;16.20;67.70;;;;;;2370606;53;20937;-76
2023/05/13 04:53:21;;;;;;;3.08;1.60;;;16.10;68.40;;;;;;2623276;52;21281;-76
2023/05/13 04:55:48;;;;;;;2.40;1.23;;;16.10;67.70;;;;;;2370393;53;21468;-74
2023/05/13 04:58:15;;;;;;;3.35;1.35;;;16.10;67.80;;;;;;2623562;52;21101;-76
2023/05/13 05:00:44;;;;;;;2.45;1.17;;;16.10;67.80;;;;;;2623260;52;20910;-76
2023/05/13 05:03:12;;;;;;;3.17;1.42;;;16.10;67.90;;;;;;2609172;52;21017;-75
2023/05/13 05:05:38;;;;;;;2.50;1.55;;;16.10;67.90;;;;;;2598278;52;20946;-74
2023/05/13 05:08:05;;;;;;;2.67;1.40;;;16.10;67.80;;;;;;2592008;52;21439;-75
2023/05/13 05:10:31;;;;;;;2.78;1.50;;;16.10;67.90;;;;;;2623163;52;20954;-76
2023/05/13 05:12:57;;;;;;;2.83;1.60;;;16.00;67.90;;;;;;2370747;54;20930;-75
2023/05/13 05:15:24;;;;;;;2.40;1.23;;;16.00;68.00;;;;;;2608601;52;21783;-74
2023/05/13 05:17:50;;;;;;;3.85;1.40;;;16.10;68.10;;;;;;2582286;53;20985;-76
2023/05/13 05:20:19;;;;;;;2.20;1.10;;;16.00;68.00;;;;;;2608168;52;21745;-76
2023/05/13 05:22:45;;;;;;;2.30;1.10;;;16.10;68.10;;;;;;2595067;52;20906;-74
2023/05/13 05:25:12;;;;;;;2.78;1.42;;;16.10;68.10;;;;;;2370525;54;20930;-76
2023/05/13 05:27:45;;;;;;;3.20;1.40;;;16.00;68.00;;;;;;2345883;53;20921;-74
2023/05/13 05:30:13;;;;;;;2.22;1.08;;;16.10;68.10;;;;;;2371326;54;21415;-75
2023/05/13 05:32:42;;;;;;;3.15;1.52;;;16.10;68.20;;;;;;2623385;52;21018;-75
2023/05/13 05:35:09;;;;;;;2.67;1.35;;;16.00;68.00;;;;;;2622771;52;21956;-75
2023/05/13 05:37:38;;;;;;;2.90;1.52;;;16.10;68.20;;;;;;2623385;52;20981;-74
2023/05/13 05:40:05;;;;;;;3.45;1.30;;;16.10;68.30;;;;;;2622353;52;21006;-75
2023/05/13 05:42:34;;;;;;;2.80;1.40;;;16.00;68.30;;;;;;2623156;52;21363;-74
2023/05/13 05:45:01;;;;;;;2.60;1.37;;;16.10;68.50;;;;;;2370010;54;20930;-74
2023/05/13 05:47:27;;;;;;;3.50;1.25;;;16.10;68.60;;;;;;2623761;52;20905;-74
2023/05/13 05:49:53;;;;;;;2.58;1.27;;;16.10;68.50;;;;;;2370652;53;20930;-73
2023/05/13 05:52:21;;;;;;;3.05;1.77;;;16.10;68.60;;;;;;2623213;52;20942;-75
2023/05/13 05:54:47;;;;;;;3.10;1.40;;;16.10;68.60;;;;;;2346391;53;20921;-74
2023/05/13 05:57:14;;;;;;;5.62;1.70;;;16.20;68.80;;;;;;2622755;52;20970;-74
2023/05/13 05:59:45;;;;;;;2.40;1.25;;;16.20;68.90;;;;;;2622944;52;21029;-74
2023/05/13 06:02:14;;;;;;;2.80;1.40;;;16.20;68.90;;;;;;2372882;54;20937;-76
2023/05/13 06:04:40;;;;;;;3.03;1.92;;;16.20;68.80;;;;;;2346146;53;21587;-73
2023/05/13 06:07:07;;;;;;;3.50;2.28;;;16.30;68.70;;;;;;2370144;54;20965;-74
2023/05/13 06:13:02;;;;;;;4.37;2.85;;;16.30;68.20;;;;;;2622989;52;20973;-75
2023/05/13 06:15:29;;;;;;;4.68;2.65;;;16.30;68.40;;;;;;2623201;52;21352;-74
2023/05/13 06:17:56;;;;;;;4.05;2.80;;;16.30;68.30;;;;;;2584077;52;20941;-75
2023/05/13 06:20:22;;;;;;;3.58;2.25;;;16.30;68.20;;;;;;2348803;53;21020;-75
2023/05/13 06:22:50;;;;;;;3.85;2.00;;;16.30;68.20;;;;;;2371474;54;20937;-76
2023/05/13 06:25:20;;;;;;;3.47;1.80;;;16.30;68.30;;;;;;2623525;52;21438;-74
2023/05/13 06:27:46;;;;;;;3.00;2.00;;;16.30;68.30;;;;;;2371149;53;20941;-75
2023/05/13 06:30:12;;;;;;;7.32;2.10;;;16.30;68.40;;;;;;2370621;53;22091;-76
2023/05/13 06:32:39;;;;;;;3.80;2.40;;;16.30;68.50;;;;;;2624002;52;20898;-74
2023/05/13 06:35:08;;;;;;;3.95;2.87;;;16.30;68.50;;;;;;2623063;52;20906;-75
2023/05/13 06:37:34;;;;;;;4.68;3.37;;;16.40;68.60;;;;;;2623425;52;20998;-75
2023/05/13 06:40:03;;;;;;;4.47;2.92;;;16.40;68.50;;;;;;2370507;54;20969;-74
2023/05/13 06:42:29;;;;;;;4.85;3.15;;;16.40;68.50;;;;;;2623495;52;20994;-75
2023/05/13 06:44:57;;;;;;;5.32;3.90;;;16.40;68.60;;;;;;2370445;53;20981;-74
2023/05/13 06:47:24;;;;;;;5.40;4.37;;;16.40;68.70;;;;;;2622395;52;21806;-75
2023/05/13 06:49:50;;;;;;;9.15;5.03;;;16.50;68.90;;;;;;2621961;52;20915;-75
2023/05/13 06:52:17;;;;;;;6.12;4.35;;;16.50;68.90;;;;;;2363271;53;21049;-75
2023/05/13 06:54:43;;;;;;;5.25;3.67;;;16.50;68.90;;;;;;2352717;53;20938;-75
2023/05/13 06:57:09;;;;;;;5.07;3.67;;;16.50;68.80;;;;;;2370183;54;20902;-75
2023/05/13 06:59:36;;;;;;;5.53;3.62;;;16.50;68.80;;;;;;2599290;52;20961;-76
2023/05/13 07:02:08;;;;;;;5.12;3.45;;;16.60;69.10;;;;;;2354354;53;21263;-75
2023/05/13 07:04:34;;;;;;;;;;;16.40;68.80;;;;;;2345157;53;20998;-74
2023/05/13 07:07:03;;;;;;;3.30;2.12;;;16.60;68.50;;;;;;2609078;52;20314;-76
2023/05/13 07:09:30;;;;;;;4.25;2.30;;;16.70;69.10;;;;;;2371059;53;20926;-75
2023/05/13 07:11:56;;;;;;;3.20;2.00;;;16.70;69.10;;;;;;2369838;54;21506;-74
2023/05/13 07:14:24;;;;;;;3.42;2.05;;;16.80;69.40;;;;;;2602633;52;21418;-77
2023/05/13 07:16:52;;;;;;;3.33;2.05;;;16.80;69.50;;;;;;2355602;53;21001;-75
2023/05/13 07:19:21;;;;;;;3.53;2.10;;;16.90;69.70;;;;;;2341962;54;21430;-74
2023/05/13 07:21:47;;;;;;;3.05;1.70;;;16.90;69.50;;;;;;2588165;52;20928;-77
2023/05/13 07:24:13;;;;;;;3.33;1.87;;;17.10;69.50;;;;;;2587524;52;21223;-75
2023/05/13 07:26:43;;;;;;;3.50;2.03;;;17.00;69.30;;;;;;2584597;52;21037;-75
2023/05/13 07:29:09;;;;;;;3.45;1.67;;;17.10;69.30;;;;;;2594857;52;20985;-75
2023/05/13 07:31:36;;;;;;;4.53;1.62;;;17.10;69.10;;;;;;2347598;53;21430;-75
2023/05/13 07:34:02;;;;;;;3.30;1.83;;;17.20;69.10;;;;;;2356603;53;20949;-75
2023/05/13 07:36:29;;;;;;;3.12;1.70;;;17.20;69.20;;;;;;2595588;52;20957;-75
2023/05/13 07:38:55;;;;;;;3.10;1.75;;;17.20;69.10;;;;;;2362350;53;21674;-75
2023/05/13 07:41:22;;;;;;;3.30;1.80;;;17.30;69.00;;;;;;2621609;52;20954;-76
2023/05/13 07:43:50;;;;;;;3.20;1.67;;;17.30;68.80;;;;;;2622050;52;20902;-75
2023/05/13 07:46:16;;;;;;;4.97;1.77;;;17.40;68.70;;;;;;2368537;54;21120;-76
2023/05/13 07:48:45;;;;;;;2.50;1.45;;;17.40;68.60;;;;;;2594340;52;20918;-76
2023/05/13 07:51:12;;;;;;;3.45;1.50;;;17.40;68.60;;;;;;2369643;54;21445;-74
2023/05/13 07:53:41;;;;;;;3.03;1.65;;;17.40;68.60;;;;;;2620035;52;21690;-75
2023/05/13 07:56:07;;;;;;;3.12;1.87;;;17.50;68.90;;;;;;2345079;53;20917;-76
2023/05/13 07:58:36;;;;;;;2.75;1.52;;;17.50;68.80;;;;;;2373386;53;21835;-77
2023/05/13 08:01:04;;;;;;;3.03;1.60;;;17.50;68.50;;;;;;2615276;52;20946;-74
2023/05/13 08:03:30;;;;;;;3.60;1.95;;;17.60;68.70;;;;;;2620642;52;21388;-73
2023/05/13 08:05:57;;;;;;;3.20;1.70;;;17.60;68.70;;;;;;2620073;52;20930;-75
2023/05/13 08:08:23;;;;;;;4.60;2.25;;;17.70;68.90;;;;;;2622031;52;20965;-75
2023/05/13 08:10:50;;;;;;;3.10;1.65;;;17.70;68.90;;;;;;2621011;52;20994;-74
2023/05/13 08:13:26;;;;;;;4.20;1.65;;;17.70;68.90;;;;;;2621527;52;20966;-74
2023/05/13 08:15:55;;;;;;;2.92;1.55;;;17.80;69.00;;;;;;2581148;53;21060;-74
2023/05/13 08:18:21;;;;;;;2.85;1.30;;;17.80;68.90;;;;;;2582037;53;20933;-74
2023/05/13 08:20:48;;;;;;;2.95;1.65;;;17.90;69.00;;;;;;2336884;53;20984;-75
2023/05/13 08:23:14;;;;;;;2.75;1.62;;;17.90;68.90;;;;;;2336544;53;20929;-74
2023/05/13 08:25:41;;;;;;;2.70;1.40;;;17.90;68.80;;;;;;2580930;53;21824;-76
2023/05/13 08:28:08;;;;;;;3.08;1.62;;;18.00;68.80;;;;;;2335284;53;20940;-75
2023/05/13 08:30:42;;;;;;;3.62;2.10;;;18.00;68.80;;;;;;2349224;53;21301;-74
2023/05/13 08:33:10;;;;;;;3.75;1.90;;;18.10;68.60;;;;;;2614561;52;21010;-76
2023/05/13 08:35:37;;;;;;;2.83;1.60;;;18.10;68.70;;;;;;2613437;52;20967;-74
2023/05/13 08:38:04;;;;;;;3.17;1.52;;;18.10;68.60;;;;;;2614606;52;21241;-74
2023/05/13 08:40:33;;;;;;;2.65;1.37;;;18.20;68.80;;;;;;2615093;52;20974;-75
2023/05/13 08:43:01;;;;;;;3.35;1.65;;;18.20;68.70;;;;;;2614477;52;20931;-74
2023/05/13 08:45:32;;;;;;;2.70;1.40;;;18.20;68.60;;;;;;2364193;53;20937;-74
2023/05/13 08:48:01;;;;;;;2.95;1.40;;;18.30;68.40;;;;;;2604075;52;21013;-74
2023/05/13 08:50:28;;;;;;;3.80;1.70;;;18.30;68.40;;;;;;2605537;52;21059;-74
2023/05/13 08:52:59;;;;;;;2.83;1.37;;;18.40;68.60;;;;;;2345295;53;21038;-75
2023/05/13 08:55:25;;;;;;;2.62;1.40;;;18.40;68.20;;;;;;2599975;52;21664;-75
2023/05/13 08:57:55;;;;;;;2.90;1.75;;;18.40;68.20;;;;;;2614533;52;20989;-76
2023/05/13 09:00:24;;;;;;;3.95;1.62;;;18.50;68.10;;;;;;2612534;52;21069;-75
2023/05/13 09:02:52;;;;;;;3.37;1.77;;;18.50;68.20;;;;;;2357896;53;20983;-79
2023/05/13 09:05:18;;;;;;;2.78;1.62;;;18.50;68.00;;;;;;2615239;52;21062;-76
2023/05/13 09:07:45;;;;;;;2.60;1.40;;;18.50;68.10;;;;;;2615602;52;21447;-74
2023/05/13 09:10:13;;;;;;;4.07;1.92;;;18.60;68.20;;;;;;2611922;52;20986;-76
2023/05/13 09:12:53;;;;;;;3.90;2.20;;;18.60;68.00;;;;;;2604894;52;21015;-75
2023/05/13 09:15:20;;;;;;;3.80;2.05;;;18.70;67.40;;;;;;2578557;52;20929;-75
2023/05/13 09:17:52;;;;;;;3.03;1.58;;;18.70;68.00;;;;;;2364979;53;20927;-76
2023/05/13 09:20:19;;;;;;;;;;;18.70;68.00;;;;;;2619869;52;20942;-76
2023/05/13 09:22:56;;;;;;;2.47;1.02;;;18.80;67.20;;;;;;2615559;52;20157;-75
2023/05/13 09:25:24;;;;;;;2.87;1.27;;;18.80;68.00;;;;;;2615305;52;20986;-75
2023/05/13 09:27:58;;;;;;;2.53;1.30;;;18.90;68.10;;;;;;2614426;52;20994;-75
2023/05/13 09:30:26;;;;;;;2.90;1.35;;;18.90;67.60;;;;;;2358805;53;21633;-75
2023/05/13 09:33:53;;;;;;;2.10;1.20;;;19.00;67.80;;;;;;2365898;53;20954;-75
2023/05/13 09:36:23;;;;;;;2.22;1.10;;;19.00;66.50;;;;;;2606086;52;21028;-75
2023/05/13 09:38:51;;;;;;;3.17;1.23;;;19.10;67.90;;;;;;2611607;52;20954;-75
2023/05/13 09:41:22;;;;;;;2.20;1.15;;;19.10;67.90;;;;;;2363541;53;21026;-75
2023/05/13 09:43:50;;;;;;;2.53;1.10;;;19.20;68.00;;;;;;2615180;52;20962;-76
2023/05/13 09:46:19;;;;;;;3.95;1.33;;;19.30;68.20;;;;;;2615898;52;21459;-73
2023/05/13 09:48:54;;;;;;;2.55;1.30;;;19.30;68.00;;;;;;2365035;53;21650;-72
2023/05/13 09:51:26;;;;;;;2.30;1.15;;;19.40;67.90;;;;;;2358463;53;21007;-75
2023/05/13 09:54:05;;;;;;;2.20;1.10;;;19.50;67.50;;;;;;2359694;53;20968;-76
2023/05/13 09:56:33;;;;;;;2.60;1.37;;;19.50;67.10;;;;;;2547982;53;21006;-73
2023/05/13 09:59:02;;;;;;;2.67;1.35;;;19.60;67.40;;;;;;2365139;53;20955;-74
2023/05/13 10:01:28;;;;;;;3.17;1.55;;;19.60;67.30;;;;;;2615061;52;21486;-73
2023/05/13 10:03:55;;;;;;;2.45;1.27;;;19.70;67.30;;;;;;2614503;52;21224;-73
2023/05/13 10:06:25;;;;;;;2.40;1.30;;;19.70;67.00;;;;;;2364225;53;20990;-76
2023/05/13 10:08:52;;;;;;;2.40;1.30;;;19.80;66.90;;;;;;2614656;52;20934;-76
2023/05/13 10:11:20;;;;;;;4.45;2.10;;;19.80;66.80;;;;;;2614688;52;20937;-74
2023/05/13 10:13:57;;;;;;;3.00;1.42;;;19.80;66.70;;;;;;2362498;53;20970;-73
2023/05/13 10:16:24;;;;;;;2.95;1.60;;;19.90;66.10;;;;;;2614623;52;21032;-73
2023/05/13 10:18:53;;;;;;;2.90;1.60;;;19.90;66.40;;;;;;2606384;52;20943;-75
2023/05/13 10:21:19;;;;;;;2.78;1.45;;;20.00;66.30;;;;;;2608856;52;20954;-72
2023/05/13 10:23:46;;;;;;;2.50;1.40;;;20.00;66.20;;;;;;2614862;52;20986;-73
2023/05/13 10:26:13;;;;;;;2.75;1.50;;;20.00;66.20;;;;;;2610996;52;21596;-74
2023/05/13 10:28:39;;;;;;;2.45;1.20;;;20.00;66.10;;;;;;2357003;53;20906;-74
2023/05/13 10:31:06;;;;;;;2.90;1.50;;;20.10;66.00;;;;;;2364503;53;21016;-76
2023/05/13 10:33:35;;;;;;;2.87;1.55;;;20.10;66.00;;;;;;2605569;52;20910;-74
2023/05/13 10:36:55;;;;;;;4.15;1.90;;;20.20;66.00;;;;;;2610594;52;21524;-74
2023/05/13 10:40:27;;;;;;;2.85;1.37;;;20.20;65.50;;;;;;2360227;53;21424;-75
2023/05/13 10:43:40;;;;;;;2.50;1.27;;;20.20;64.60;;;;;;2364754;53;20923;-75
2023/05/13 10:46:07;;;;;;;3.12;1.50;;;20.30;65.80;;;;;;2614935;52;20978;-75
2023/05/13 10:48:41;;;;;;;2.80;1.60;;;20.40;66.20;;;;;;2615409;52;20923;-74
2023/05/13 10:51:09;;;;;;;3.42;1.48;;;20.40;65.20;;;;;;2363532;53;21289;-74
2023/05/13 10:53:40;;;;;;;2.17;1.20;;;20.40;65.60;;;;;;2364298;53;20931;-75
2023/05/13 10:56:06;;;;;;;3.03;1.77;;;20.50;65.60;;;;;;2363798;53;21014;-72
2023/05/13 10:58:34;;;;;;;2.92;1.60;;;20.50;65.50;;;;;;2590049;52;20948;-73
2023/05/13 11:01:25;;;;;;;2.92;1.52;;;20.60;65.40;;;;;;2332686;53;20945;-72
2023/05/13 11:03:56;;;;;;;2.60;1.20;;;20.60;64.00;;;;;;2335827;53;20909;-72
2023/05/13 11:06:28;;;;;;;2.45;1.33;;;20.60;64.90;;;;;;2334588;53;20960;-72
2023/05/13 11:08:54;;;;;;;3.08;1.70;;;20.70;64.90;;;;;;2337004;53;20912;-72
2023/05/13 11:11:28;;;;;;;2.80;1.30;;;20.60;64.70;;;;;;2552090;53;20987;-74
2023/05/13 11:14:20;;;;;;;2.50;1.20;;;20.70;64.20;;;;;;2581983;53;20935;-72
2023/05/13 11:17:09;;;;;;;2.58;1.40;;;20.70;63.20;;;;;;2337256;53;20983;-73
2023/05/13 11:19:36;;;;;;;3.12;1.50;;;20.70;63.20;;;;;;2610996;53;21005;-73
2023/05/13 11:22:19;;;;;;;2.80;1.50;;;20.70;64.20;;;;;;2320690;54;20960;-72
2023/05/13 11:25:06;;;;;;;2.08;1.02;;;20.70;63.20;;;;;;2333175;53;21707;-72
2023/05/13 11:27:38;;;;;;;2.78;1.40;;;20.70;64.20;;;;;;2360690;53;20941;-72
2023/05/13 11:30:24;;;;;;;2.55;1.42;;;20.70;64.10;;;;;;2364645;54;20921;-76
2023/05/13 11:33:01;;;;;;;2.47;1.33;;;20.70;64.70;;;;;;2595940;52;20936;-73
2023/05/13 11:35:29;;;;;;;2.65;1.40;;;20.80;64.20;;;;;;2606190;52;20948;-73
2023/05/13 11:37:55;;;;;;;2.80;1.48;;;20.80;65.00;;;;;;2364368;54;20995;-73
2023/05/13 11:40:27;;;;;;;2.15;1.23;;;20.90;65.10;;;;;;2616570;52;20964;-73
2023/05/13 11:42:54;;;;;;;2.85;1.55;;;20.90;64.70;;;;;;2616303;52;20932;-72
2023/05/13 11:45:23;;;;;;;2.60;1.42;;;21.00;65.00;;;;;;2615908;52;20917;-72
2023/05/13 11:47:52;;;;;;;2.62;1.42;;;21.00;64.80;;;;;;2615803;52;21008;-71
2023/05/13 11:50:28;;;;;;;2.78;1.50;;;21.10;64.50;;;;;;2364883;54;21758;-73
2023/05/13 11:52:58;;;;;;;2.55;1.30;;;21.10;63.90;;;;;;2364713;54;20937;-72
2023/05/13 11:55:35;;;;;;;2.50;1.30;;;21.20;63.90;;;;;;2365350;54;20995;-73
2023/05/13 11:58:02;;;;;;;2.30;1.10;;;21.20;63.40;;;;;;2615494;52;20991;-74
2023/05/13 12:00:32;;;;;;;2.60;1.37;;;21.20;64.20;;;;;;2616503;52;20958;-74
2023/05/13 12:03:09;;;;;;;2.72;1.40;;;21.20;63.70;;;;;;2610780;52;20978;-74
2023/05/13 12:05:35;;;;;;;2.30;1.20;;;21.20;63.90;;;;;;2601187;52;20945;-72
2023/05/13 12:08:02;;;;;;;2.53;1.37;;;21.30;63.90;;;;;;2598281;52;21407;-74
2023/05/13 12:10:28;;;;;;;2.80;1.20;;;21.30;63.90;;;;;;2615892;52;20912;-74
2023/05/13 12:12:55;;;;;;;2.90;1.40;;;21.30;63.90;;;;;;2364551;53;21792;-74
2023/05/13 12:15:21;;;;;;;2.65;1.20;;;21.40;64.10;;;;;;2364768;54;21012;-74
2023/05/13 12:17:50;;;;;;;2.47;1.10;;;21.40;64.10;;;;;;2605690;52;20961;-72
2023/05/13 12:20:18;;;;;;;3.12;1.40;;;21.40;64.00;;;;;;2577969;52;20993;-76
2023/05/13 12:22:57;;;;;;;2.33;1.00;;;21.40;63.80;;;;;;2597830;52;20910;-72
2023/05/13 12:25:43;;;;;;;2.30;1.27;;;21.50;62.90;;;;;;2355373;53;21540;-73
2023/05/13 12:28:43;;;;;;;2.28;1.05;;;21.50;62.10;;;;;;2360271;54;21013;-71
2023/05/13 12:31:15;;;;;;;2.65;0.90;;;21.50;62.00;;;;;;2597453;52;20989;-72
2023/05/13 12:33:48;;;;;;;2.00;0.90;;;21.60;63.20;;;;;;2616337;52;20921;-73
2023/05/13 12:36:34;;;;;;;2.08;0.93;;;21.50;63.40;;;;;;2615290;52;21547;-75
2023/05/13 12:39:06;;;;;;;1.55;0.70;;;21.60;63.10;;;;;;2614639;52;20937;-73
2023/05/13 12:41:33;;;;;;;;;;;21.60;63.70;;;;;;2368211;54;21354;-73
2023/05/13 12:44:06;;;;;;;1.98;0.90;;;21.70;63.00;;;;;;2364001;54;21126;-74
2023/05/13 12:46:33;;;;;;;1.10;0.62;;;21.70;64.10;;;;;;2344852;53;20997;-75
2023/05/13 12:49:00;;;;;;;2.08;0.88;;;21.80;64.10;;;;;;2362078;53;20952;-77
2023/05/13 12:51:30;;;;;;;1.65;0.70;;;21.80;63.80;;;;;;2615960;52;20957;-74
2023/05/13 12:53:57;;;;;;;2.30;1.00;;;21.80;63.60;;;;;;2349905;53;20976;-73
2023/05/13 12:56:23;;;;;;;2.62;1.17;;;21.90;63.70;;;;;;2603148;52;21457;-77
2023/05/13 12:58:52;;;;;;;2.45;1.20;;;21.90;63.60;;;;;;2615362;52;21077;-75
2023/05/13 13:01:18;;;;;;;2.40;0.93;;;21.90;63.40;;;;;;2614423;52;21840;-74
2023/05/13 13:03:48;;;;;;;2.35;0.90;;;21.90;63.30;;;;;;2615678;52;21359;-75
2023/05/13 13:06:14;;;;;;;1.50;0.70;;;22.00;63.10;;;;;;2614444;52;21004;-74
2023/05/13 13:08:41;;;;;;;2.03;1.00;;;22.00;63.20;;;;;;2364090;54;21024;-74
2023/05/13 13:11:08;;;;;;;1.98;0.90;;;22.00;63.00;;;;;;2614648;52;20929;-73
2023/05/13 13:13:35;;;;;;;1.50;0.73;;;21.90;62.80;;;;;;2616144;52;21021;-73